Time;durP1;ratioP1;P1;durP2;ratioP2;P2;SDS_P1;SDS_P2;PMS_P1;PMS_P2;Temp;Humidity;BMP_temperature;BMP_pressure;BME280_temperature;BME280_humidity;BME280_pressure;Samples;Min_cycle;Max_cycle;Signal;HPM_P1;HPM_P2
2020/12/10 00:00:37;;;;;;;48.07;24.53;;;;;;;-1.73;72.49;100142.04;126452;1093;105892;-77
2020/12/10 00:03:04;;;;;;;46.60;24.97;;;;;;;-1.75;73.27;100147.12;126401;1093;104484;-77
2020/12/10 00:05:32;;;;;;;47.63;24.30;;;;;;;-1.78;73.22;100141.97;126372;1100;104397;-78
2020/12/10 00:07:59;;;;;;;45.93;25.53;;;;;;;-1.78;72.77;100136.00;126625;1093;104503;-78
2020/12/10 00:10:27;;;;;;;47.20;24.82;;;;;;;-1.76;72.82;100134.33;126695;1093;104455;-79
2020/12/10 00:12:57;;;;;;;49.37;26.10;;;;;;;-1.75;73.27;100130.93;126646;1098;104507;-78
2020/12/10 00:15:25;;;;;;;50.47;26.60;;;;;;;-1.72;73.34;100124.16;126433;1098;104461;-77
2020/12/10 00:17:52;;;;;;;50.63;27.30;;;;;;;-1.67;73.29;100129.34;126692;1093;104388;-78
2020/12/10 00:20:19;;;;;;;45.60;24.33;;;;;;;-1.69;72.78;100128.45;126425;1100;104387;-78
2020/12/10 00:22:47;;;;;;;48.53;24.47;;;;;;;-1.71;73.12;100132.69;126483;1099;104523;-78
2020/12/10 00:25:14;;;;;;;48.77;24.67;;;;;;;-1.71;73.31;100114.80;126644;1098;104573;-79
2020/12/10 00:27:41;;;;;;;42.43;24.30;;;;;;;-1.72;73.19;100110.52;126366;1098;104587;-78
2020/12/10 00:30:10;;;;;;;43.67;24.33;;;;;;;-1.79;73.17;100107.02;126647;1099;104843;-78
2020/12/10 00:32:38;;;;;;;43.73;22.93;;;;;;;-1.83;73.59;100108.64;126433;1100;104423;-78
2020/12/10 00:35:08;;;;;;;46.60;23.10;;;;;;;-1.86;73.56;100105.19;126707;1093;106013;-78
2020/12/10 00:37:37;;;;;;;42.30;22.80;;;;;;;-1.90;74.25;100103.42;126447;1099;105006;-79
2020/12/10 00:40:08;;;;;;;40.93;21.30;;;;;;;-1.91;74.60;100107.68;126451;1100;104413;-78
2020/12/10 00:42:36;;;;;;;36.77;20.73;;;;;;;-1.93;74.71;100109.36;126459;1099;104477;-79
2020/12/10 00:45:04;;;;;;;34.23;19.23;;;;;;;-1.95;74.17;100108.47;126685;1100;104222;-78
2020/12/10 00:47:32;;;;;;;36.93;21.07;;;;;;;-1.97;74.55;100096.52;126637;1093;105043;-79
2020/12/10 00:50:00;;;;;;;36.20;20.25;;;;;;;-1.97;74.81;100105.04;126685;1098;104391;-78
2020/12/10 00:52:29;;;;;;;38.03;20.43;;;;;;;-1.98;74.98;100103.28;126659;1098;104503;-79
2020/12/10 00:55:01;;;;;;;36.13;20.37;;;;;;;-1.99;75.08;100093.90;126464;1093;104848;-79
2020/12/10 00:57:31;;;;;;;36.60;19.47;;;;;;;-1.97;75.08;100089.70;126700;1098;104410;-78
2020/12/10 00:59:59;;;;;;;35.23;19.63;;;;;;;-1.98;75.53;100082.84;126700;1093;104480;-78
2020/12/10 01:02:26;;;;;;;34.70;18.47;;;;;;;-1.99;75.23;100085.38;126701;1093;104579;-79
2020/12/10 01:04:53;;;;;;;34.40;18.70;;;;;;;-2.02;75.38;100080.22;126385;1100;104612;-78
2020/12/10 01:07:21;;;;;;;29.55;17.32;;;;;;;-2.04;75.60;100081.89;126662;1098;104395;-78
2020/12/10 01:09:48;;;;;;;31.77;17.63;;;;;;;-2.04;75.96;100072.53;126435;1100;104384;-79
2020/12/10 01:12:15;;;;;;;33.77;19.03;;;;;;;-2.04;75.54;100071.67;126409;1100;104452;-78
2020/12/10 01:14:42;;;;;;;35.67;18.50;;;;;;;-2.01;75.62;100066.61;126447;1093;104490;-79
2020/12/10 01:17:10;;;;;;;33.37;17.47;;;;;;;-2.02;75.96;100063.19;126393;1098;104818;-79
2020/12/10 01:19:37;;;;;;;29.30;17.50;;;;;;;-2.02;75.86;100064.89;126516;1100;104522;-79
2020/12/10 01:22:05;;;;;;;31.97;17.50;;;;;;;-2.00;75.83;100069.18;126799;1093;104423;-78
2020/12/10 01:24:32;;;;;;;29.37;16.90;;;;;;;-2.01;76.14;100066.61;126491;1093;103481;-78
2020/12/10 01:27:00;;;;;;;31.45;16.95;;;;;;;-2.02;76.59;100067.44;126657;1098;104426;-78
2020/12/10 01:29:27;;;;;;;31.33;16.20;;;;;;;-2.02;76.25;100059.77;126464;1098;104487;-79
2020/12/10 01:31:55;;;;;;;29.93;16.77;;;;;;;-2.01;76.87;100064.05;126682;1098;104443;-79
2020/12/10 01:34:22;;;;;;;29.13;15.97;;;;;;;-2.01;76.16;100062.35;126695;1098;104525;-79
2020/12/10 01:36:49;;;;;;;30.00;16.87;;;;;;;-2.00;75.82;100051.30;126720;1098;104388;-78
2020/12/10 01:39:17;;;;;;;31.40;15.27;;;;;;;-1.96;76.81;100044.55;126389;1098;104531;-78
2020/12/10 01:41:44;;;;;;;29.63;16.73;;;;;;;-1.96;76.80;100070.97;126614;1098;104449;-80
2020/12/10 01:44:13;;;;;;;28.03;16.23;;;;;;;-1.95;76.32;100049.69;126653;1093;104452;-79
2020/12/10 01:46:42;;;;;;;27.10;14.20;;;;;;;-1.94;76.75;100042.88;126362;1100;104482;-78
2020/12/10 01:49:10;;;;;;;24.87;14.87;;;;;;;-1.96;76.85;100039.45;126453;1100;104474;-79
2020/12/10 01:51:37;;;;;;;26.33;15.10;;;;;;;-1.96;77.08;100042.00;126443;1098;104269;-78
2020/12/10 01:54:06;;;;;;;27.73;14.53;;;;;;;-1.96;76.66;100047.97;126409;1093;104449;-78
2020/12/10 01:56:35;;;;;;;25.87;15.20;;;;;;;-1.94;76.72;100043.73;126423;1099;104436;-79
2020/12/10 01:59:04;;;;;;;28.33;15.13;;;;;;;-1.90;76.76;100039.52;126416;1097;104467;-78
2020/12/10 02:01:34;;;;;;;30.40;15.93;;;;;;;-1.86;76.92;100043.84;126598;1093;104459;-79
2020/12/10 02:04:03;;;;;;;24.80;14.93;;;;;;;-1.83;76.98;100039.63;126595;1093;104545;-79
2020/12/10 02:06:30;;;;;;;26.37;14.93;;;;;;;-1.79;77.56;100037.14;126667;1093;104387;-79
2020/12/10 02:08:58;;;;;;;25.87;14.43;;;;;;;-1.76;77.02;100026.95;126474;1093;104487;-79
2020/12/10 02:11:26;;;;;;;29.60;14.97;;;;;;;-1.76;76.99;100026.95;126475;1100;104434;-79
2020/12/10 02:13:54;;;;;;;25.07;14.50;;;;;;;-1.79;76.72;100022.66;126653;1099;102760;-79
2020/12/10 02:16:21;;;;;;;23.40;13.97;;;;;;;-1.78;77.28;100021.81;126682;1093;104506;-79
2020/12/10 02:18:57;;;;;;;25.63;14.67;;;;;;;-1.77;77.28;100009.89;126488;1098;104472;-79
2020/12/10 02:21:25;;;;;;;24.53;13.70;;;;;;;-1.78;77.75;100003.92;126664;1093;104458;-78
2020/12/10 02:23:56;;;;;;;26.47;14.47;;;;;;;-1.77;77.44;100004.78;126726;1098;104392;-79
2020/12/10 02:26:27;;;;;;;25.33;13.77;;;;;;;-1.78;77.81;99997.95;126647;1098;104516;-79
2020/12/10 02:28:59;;;;;;;23.57;13.50;;;;;;;-1.77;77.25;100002.22;126417;1098;104517;-78
2020/12/10 02:31:29;;;;;;;23.57;14.33;;;;;;;-1.75;77.49;99998.84;126703;1093;105603;-79
2020/12/10 02:34:21;;;;;;;24.57;13.73;;;;;;;-1.74;77.76;99994.59;126567;1100;104499;-79
2020/12/10 02:36:50;;;;;;;25.60;14.67;;;;;;;-1.74;77.89;99989.48;126713;1093;104362;-79
2020/12/10 02:39:17;;;;;;;22.63;13.77;;;;;;;-1.74;77.26;99990.34;126681;1093;104519;-78
2020/12/10 02:41:46;;;;;;;23.87;14.37;;;;;;;-1.70;77.71;99981.86;126422;1098;104545;-79
2020/12/10 02:44:14;;;;;;;30.00;15.20;;;;;;;-1.69;78.25;99982.72;126672;1099;104353;-78
2020/12/10 02:46:41;;;;;;;24.80;15.10;;;;;;;-1.69;78.07;99978.45;126655;1098;104907;-78
2020/12/10 02:49:09;;;;;;;28.03;14.83;;;;;;;-1.69;77.58;99973.34;126546;1093;104871;-79
2020/12/10 02:51:36;;;;;;;29.43;15.17;;;;;;;-1.65;77.71;99969.13;126540;1093;103203;-77
2020/12/10 02:54:03;;;;;;;28.50;16.00;;;;;;;-1.65;78.48;99969.98;126689;1098;104434;-78
2020/12/10 02:56:30;;;;;;;26.83;15.47;;;;;;;-1.67;79.05;99966.55;126690;1099;104551;-78
2020/12/10 02:58:57;;;;;;;28.98;15.10;;;;;;;-1.70;78.17;99966.52;126684;1098;104500;-78
2020/12/10 03:01:25;;;;;;;28.27;15.37;;;;;;;-1.69;78.69;99975.05;126683;1094;101975;-79
2020/12/10 03:03:53;;;;;;;28.20;15.80;;;;;;;-1.70;77.95;99963.96;126683;1098;104385;-78
2020/12/10 03:06:20;;;;;;;29.32;16.17;;;;;;;-1.67;78.52;99970.80;126445;1099;104490;-78
2020/12/10 03:08:48;;;;;;;26.10;15.17;;;;;;;-1.68;77.94;99953.75;126656;1093;104427;-78
2020/12/10 03:11:15;;;;;;;32.43;16.07;;;;;;;-1.67;78.34;99960.58;126701;1098;104382;-78
2020/12/10 03:13:42;;;;;;;27.97;16.07;;;;;;;-1.67;78.38;99947.80;126472;1100;104426;-78
2020/12/10 03:16:10;;;;;;;30.07;15.73;;;;;;;-1.68;78.70;99951.19;126650;1098;104391;-79
2020/12/10 03:18:37;;;;;;;29.87;16.60;;;;;;;-1.70;79.26;99940.09;126399;1097;104602;-78
2020/12/10 03:21:04;;;;;;;30.03;16.20;;;;;;;-1.71;78.38;99939.23;126561;1093;104405;-78
2020/12/10 03:23:31;;;;;;;28.90;16.57;;;;;;;-1.69;79.07;99952.03;126730;1098;104468;-78
2020/12/10 03:25:59;;;;;;;30.87;16.63;;;;;;;-1.72;79.07;99926.44;126554;1100;104474;-78
2020/12/10 03:28:26;;;;;;;30.27;16.17;;;;;;;-1.75;78.51;99924.70;126680;1098;104532;-78
2020/12/10 03:30:53;;;;;;;33.95;17.95;;;;;;;-1.77;78.78;99928.09;126699;1093;104368;-77
2020/12/10 03:33:21;;;;;;;35.03;18.50;;;;;;;-1.75;78.66;99923.84;126667;1093;104474;-78
2020/12/10 03:35:48;;;;;;;37.17;18.57;;;;;;;-1.75;78.97;99926.41;126654;1093;104426;-78
2020/12/10 03:38:16;;;;;;;34.80;17.50;;;;;;;-1.76;79.29;99938.33;126385;1093;104468;-77
2020/12/10 03:40:43;;;;;;;37.63;18.60;;;;;;;-1.78;79.94;99932.34;126661;1098;104551;-78
2020/12/10 03:43:10;;;;;;;35.17;18.53;;;;;;;-1.80;79.99;99933.13;126494;1093;104301;-78
2020/12/10 03:45:37;;;;;;;33.53;17.23;;;;;;;-1.82;79.21;99931.42;126696;1098;104449;-79
2020/12/10 03:48:04;;;;;;;37.90;18.27;;;;;;;-1.82;79.44;99928.00;126769;1098;104442;-79
2020/12/10 03:50:31;;;;;;;43.80;19.70;;;;;;;-1.83;80.15;99929.70;126376;1099;104580;-78
2020/12/10 03:52:59;;;;;;;32.33;17.83;;;;;;;-1.84;79.61;99933.09;126411;1100;104503;-78
2020/12/10 03:55:26;;;;;;;38.80;20.02;;;;;;;-1.85;79.53;99933.94;126421;1097;104556;-78
2020/12/10 03:57:53;;;;;;;36.65;19.40;;;;;;;-1.85;79.41;99920.30;126428;1097;104420;-79
2020/12/10 04:00:21;;;;;;;39.33;20.27;;;;;;;-1.86;79.37;99916.89;126433;1099;102000;-78
2020/12/10 04:02:48;;;;;;;36.83;19.00;;;;;;;-1.85;79.42;99916.05;126573;1098;104367;-78
2020/12/10 04:05:15;;;;;;;36.90;19.37;;;;;;;-1.84;79.68;99912.66;126645;1093;104894;-77
2020/12/10 04:07:45;;;;;;;34.63;17.87;;;;;;;-1.80;79.37;99913.54;126417;1100;104522;-78
2020/12/10 04:10:12;;;;;;;33.70;18.43;;;;;;;-1.80;78.84;99907.57;126424;1096;104901;-78
2020/12/10 04:12:39;;;;;;;35.53;17.83;;;;;;;-1.80;78.64;99903.31;126645;1099;104557;-78
2020/12/10 04:15:07;;;;;;;36.13;17.93;;;;;;;-1.79;78.42;99904.20;126630;1098;104522;-79
2020/12/10 04:17:34;;;;;;;34.63;18.57;;;;;;;-1.79;79.28;99911.88;126682;1093;104477;-78
2020/12/10 04:20:03;;;;;;;33.80;18.10;;;;;;;-1.79;78.44;99893.98;126441;1098;104472;-79
2020/12/10 04:22:30;;;;;;;35.10;18.07;;;;;;;-1.78;79.23;99900.81;126698;1098;104519;-78
2020/12/10 04:24:58;;;;;;;39.37;19.23;;;;;;;-1.78;78.51;99903.36;126559;1099;104522;-78
2020/12/10 04:27:25;;;;;;;41.15;19.75;;;;;;;-1.76;78.38;99892.31;126427;1098;104484;-78
2020/12/10 04:29:53;;;;;;;38.73;19.03;;;;;;;-1.71;78.81;99889.80;126455;1098;104397;-78
2020/12/10 04:32:20;;;;;;;35.00;18.83;;;;;;;-1.70;78.17;99894.07;126671;1098;104499;-78
2020/12/10 04:34:47;;;;;;;37.17;17.93;;;;;;;-1.71;78.56;99893.21;126510;1100;104401;-79
2020/12/10 04:37:15;;;;;;;33.27;16.57;;;;;;;-1.73;78.58;99899.16;126621;1093;103401;-78
2020/12/10 04:39:47;;;;;;;34.50;18.73;;;;;;;-1.76;77.76;99899.98;126451;1097;104263;-78
2020/12/10 04:42:16;;;;;;;35.10;16.00;;;;;;;-1.78;78.42;99893.14;126461;1093;104445;-78
2020/12/10 04:44:46;;;;;;;36.37;18.67;;;;;;;-1.79;77.87;99894.84;126686;1098;104366;-78
2020/12/10 04:47:14;;;;;;;35.77;17.67;;;;;;;-1.78;78.08;99905.92;126669;1093;104437;-79
2020/12/10 04:49:43;;;;;;;40.30;19.63;;;;;;;-1.76;78.04;99905.09;126467;1098;104490;-79
2020/12/10 04:52:12;;;;;;;35.97;18.30;;;;;;;-1.77;78.16;99893.16;126664;1093;104503;-78
2020/12/10 04:54:39;;;;;;;29.17;16.00;;;;;;;-1.79;78.44;99899.09;126677;1098;104298;-78
2020/12/10 04:57:11;;;;;;;29.40;16.50;;;;;;;-1.81;78.02;99909.27;126438;1100;104381;-78
2020/12/10 04:59:39;;;;;;;38.00;17.63;;;;;;;-1.84;78.12;99904.13;126464;1098;104372;-77
2020/12/10 05:02:12;;;;;;;39.07;20.00;;;;;;;-1.84;78.25;99906.68;126458;1093;104365;-78
2020/12/10 05:04:41;;;;;;;35.10;18.13;;;;;;;-1.86;78.59;99904.11;126472;1096;104371;-78
2020/12/10 05:07:08;;;;;;;39.77;19.23;;;;;;;-1.87;78.59;99901.53;126670;1098;104865;-79
2020/12/10 05:09:36;;;;;;;39.87;19.23;;;;;;;-1.87;78.41;99917.73;126641;1098;105270;-78
2020/12/10 05:12:16;;;;;;;38.50;18.33;;;;;;;-1.88;77.97;99904.94;126451;1098;104443;-78
2020/12/10 05:14:46;;;;;;;37.43;19.37;;;;;;;-1.91;78.54;99905.76;126461;1100;105394;-78
2020/12/10 05:17:16;;;;;;;38.00;19.23;;;;;;;-1.93;78.59;99906.58;126467;1099;104599;-78
2020/12/10 05:19:43;;;;;;;37.53;18.83;;;;;;;-1.94;78.19;99902.31;126480;1098;104436;-79
2020/12/10 05:22:11;;;;;;;39.47;19.37;;;;;;;-1.95;77.97;99893.79;126613;1098;104368;-78
2020/12/10 05:24:38;;;;;;;39.00;19.13;;;;;;;-1.93;78.28;99891.25;126546;1093;104452;-78
2020/12/10 05:27:23;;;;;;;44.17;20.90;;;;;;;-1.91;78.07;99882.76;126452;1098;104526;-79
2020/12/10 05:29:52;;;;;;;41.30;21.80;;;;;;;-1.88;78.39;99874.27;126470;1093;104403;-78
2020/12/10 05:32:42;;;;;;;37.10;20.43;;;;;;;-1.86;77.89;99870.02;126517;1099;104477;-78
2020/12/10 05:35:22;;;;;;;47.47;22.20;;;;;;;-1.83;78.33;99863.24;126434;1093;104470;-78
2020/12/10 05:37:53;;;;;;;47.23;22.23;;;;;;;-1.78;78.54;99865.88;126455;1100;104430;-79
2020/12/10 05:40:21;;;;;;;43.03;21.40;;;;;;;-1.78;78.27;99870.98;126450;1100;104529;-78
2020/12/10 05:42:51;;;;;;;42.90;21.55;;;;;;;-1.82;77.96;99885.41;126432;1093;102440;-79
2020/12/10 05:45:23;;;;;;;47.30;22.30;;;;;;;-1.85;78.22;99870.04;126477;1100;103186;-78
2020/12/10 05:47:59;;;;;;;43.50;22.10;;;;;;;-1.88;78.50;99870.01;126679;1098;104365;-79
2020/12/10 05:50:31;;;;;;;44.00;22.13;;;;;;;-1.90;77.97;99868.28;126591;1099;104458;-77
2020/12/10 05:53:11;;;;;;;44.63;21.43;;;;;;;-1.91;77.90;99869.12;126463;1098;104475;-78
2020/12/10 05:55:40;;;;;;;47.37;23.87;;;;;;;-1.93;78.08;99870.80;126456;1093;104526;-78
2020/12/10 05:58:09;;;;;;;43.03;21.40;;;;;;;-1.95;78.17;99888.67;126450;1093;104401;-78
2020/12/10 06:00:38;;;;;;;42.53;21.30;;;;;;;-1.96;77.66;99875.88;126441;1093;104435;-78
2020/12/10 06:03:05;;;;;;;44.23;22.73;;;;;;;-1.99;78.51;99866.45;126619;1099;104420;-78
2020/12/10 06:05:34;;;;;;;43.50;21.75;;;;;;;-2.00;78.11;99869.84;126633;1100;104994;-78
2020/12/10 06:08:06;;;;;;;46.47;22.70;;;;;;;-1.99;77.93;99880.92;126427;1099;104474;-78
2020/12/10 06:10:42;;;;;;;44.60;23.20;;;;;;;-2.00;78.08;99864.73;126733;1098;104484;-78
2020/12/10 06:13:11;;;;;;;;;;;;;;;-2.01;78.52;99878.36;126761;1098;104402;-78
2020/12/10 06:15:38;;;;;;;42.77;21.07;;;;;;;-2.03;78.17;99863.84;126483;1099;104624;-78
2020/12/10 06:18:11;;;;;;;44.70;22.03;;;;;;;-2.03;78.23;99874.93;126676;1098;104524;-78
2020/12/10 06:20:41;;;;;;;44.53;21.50;;;;;;;-2.04;78.33;99862.99;126614;1093;104525;-78
2020/12/10 06:23:27;;;;;;;43.07;22.20;;;;;;;-2.04;78.12;99878.33;126631;1098;103438;-78
2020/12/10 06:25:58;;;;;;;40.10;20.00;;;;;;;-2.04;78.01;99862.14;126670;1098;104459;-78
2020/12/10 06:28:25;;;;;;;44.17;21.30;;;;;;;-2.02;78.21;99851.09;126553;1093;104470;-77
2020/12/10 06:31:08;;;;;;;41.60;22.10;;;;;;;-2.02;78.33;99861.31;126653;1093;105007;-78
2020/12/10 06:33:42;;;;;;;45.03;22.47;;;;;;;-2.01;78.57;99852.80;126642;1093;104435;-79
2020/12/10 06:36:27;;;;;;;38.70;20.83;;;;;;;-1.99;78.46;99866.45;126700;1098;103182;-80
2020/12/10 06:38:56;;;;;;;41.60;20.90;;;;;;;-1.98;78.18;99857.94;126750;1093;103979;-78
2020/12/10 06:41:24;;;;;;;46.83;22.97;;;;;;;-1.96;78.64;99861.41;126652;1093;104388;-78
2020/12/10 06:43:52;;;;;;;41.50;21.57;;;;;;;-1.92;78.18;99867.41;126465;1099;104461;-78
2020/12/10 06:46:20;;;;;;;44.63;21.57;;;;;;;-1.92;77.95;99863.16;126373;1099;104251;-78
2020/12/10 06:48:49;;;;;;;47.30;22.90;;;;;;;-1.91;78.59;99853.78;126430;1099;104533;-78
2020/12/10 06:51:21;;;;;;;47.43;23.43;;;;;;;-1.90;77.91;99858.05;126656;1098;104430;-78
2020/12/10 06:54:01;;;;;;;47.90;22.77;;;;;;;-1.89;78.46;99863.18;126679;1098;104474;-79
2020/12/10 06:56:31;;;;;;;48.23;23.20;;;;;;;-1.85;78.55;99853.84;126618;1093;104479;-78
2020/12/10 06:59:02;;;;;;;48.20;23.33;;;;;;;-1.82;77.91;99854.73;126673;1098;104413;-78
2020/12/10 07:01:36;;;;;;;45.97;23.87;;;;;;;-1.76;77.66;99858.22;126651;1098;104465;-78
2020/12/10 07:04:46;;;;;;;44.23;22.53;;;;;;;-1.74;77.86;99847.17;126693;1098;105210;-78
2020/12/10 07:07:13;;;;;;;;;;;;;;;-1.70;77.79;99848.91;126701;1098;104462;-78
2020/12/10 07:09:46;;;;;;;43.13;22.42;;;;;;;-1.72;77.20;99852.30;126677;1098;104455;-78
2020/12/10 07:12:41;;;;;;;42.97;21.30;;;;;;;-1.75;77.23;99850.56;126614;1093;103030;-79
2020/12/10 07:15:26;;;;;;;38.27;19.90;;;;;;;-1.80;77.54;99841.11;126665;1098;104451;-78
2020/12/10 07:17:54;;;;;;;40.90;20.37;;;;;;;-1.81;77.47;99845.36;126458;1100;104573;-78
2020/12/10 07:20:23;;;;;;;41.80;21.50;;;;;;;-1.82;77.92;99839.39;126521;1093;104601;-79
2020/12/10 07:22:55;;;;;;;45.00;22.53;;;;;;;-1.81;77.61;99837.69;126414;1095;104439;-78
2020/12/10 07:25:30;;;;;;;42.10;20.33;;;;;;;-1.80;77.68;99833.44;126537;1093;104429;-78
2020/12/10 07:27:58;;;;;;;41.20;20.13;;;;;;;-1.76;77.66;99822.43;126423;1099;103155;-78
2020/12/10 07:30:29;;;;;;;42.95;22.10;;;;;;;-1.74;77.78;99836.94;126313;1094;104506;-80
2020/12/10 07:32:59;;;;;;;39.17;20.03;;;;;;;-1.75;77.13;99825.00;125363;1100;104487;-79
2020/12/10 07:35:38;;;;;;;40.85;20.60;;;;;;;-1.75;77.67;99821.59;126672;1093;103913;-79
2020/12/10 07:38:10;;;;;;;40.67;21.33;;;;;;;-1.75;77.13;99827.56;126459;1100;104454;-79
2020/12/10 07:40:40;;;;;;;46.33;23.00;;;;;;;-1.75;77.00;99829.25;126710;1099;104469;-79
2020/12/10 07:43:26;;;;;;;39.60;21.23;;;;;;;-1.75;76.85;99816.47;126695;1098;104407;-78
2020/12/10 07:45:55;;;;;;;35.85;19.25;;;;;;;-1.75;77.69;99811.36;126674;1093;104496;-79
2020/12/10 07:48:23;;;;;;;40.30;20.67;;;;;;;-1.75;77.22;99819.03;126412;1098;104512;-79
2020/12/10 07:50:53;;;;;;;39.07;20.83;;;;;;;-1.77;76.92;99813.91;126584;1093;104398;-80
2020/12/10 07:53:28;;;;;;;38.57;19.97;;;;;;;-1.77;77.72;99800.27;126419;1099;104423;-79
2020/12/10 07:56:02;;;;;;;42.27;21.52;;;;;;;-1.74;77.66;99802.84;126438;1100;104592;-79
2020/12/10 07:59:01;;;;;;;38.20;20.07;;;;;;;-1.71;77.63;99805.43;126483;1100;104461;-79
2020/12/10 08:01:46;;;;;;;32.93;18.30;;;;;;;-1.72;76.99;99803.72;126522;1093;104541;-79
2020/12/10 08:04:19;;;;;;;36.63;19.33;;;;;;;-1.73;76.83;99807.97;126358;1093;104461;-79
2020/12/10 08:06:49;;;;;;;34.97;19.47;;;;;;;-1.73;77.35;99807.12;126412;1093;104554;-79
2020/12/10 08:09:18;;;;;;;40.67;19.90;;;;;;;-1.73;76.96;99809.67;126517;1100;104435;-79
2020/12/10 08:11:54;;;;;;;34.10;19.33;;;;;;;-1.73;77.22;99814.78;125713;1100;104507;-79
2020/12/10 08:14:32;;;;;;;35.92;20.45;;;;;;;-1.73;77.50;99810.53;126403;1093;104478;-79
2020/12/10 08:17:05;;;;;;;34.13;19.73;;;;;;;-1.72;77.17;99824.17;126450;1093;104522;-79
2020/12/10 08:19:34;;;;;;;31.05;17.60;;;;;;;-1.74;77.55;99818.19;126643;1093;104475;-79
2020/12/10 08:22:16;;;;;;;34.87;18.17;;;;;;;-1.75;77.00;99813.92;126595;1098;104474;-78
2020/12/10 08:24:46;;;;;;;36.37;19.33;;;;;;;-1.76;77.24;99824.98;126604;1093;104430;-78
2020/12/10 08:27:18;;;;;;;31.67;18.47;;;;;;;-1.75;77.27;99829.25;126416;1098;104397;-78
2020/12/10 08:30:03;;;;;;;32.73;18.03;;;;;;;-1.73;77.74;99809.67;126436;1098;104467;-78
2020/12/10 08:32:30;;;;;;;31.43;17.40;;;;;;;-1.71;77.52;99803.73;126191;1100;104416;-79
2020/12/10 08:35:06;;;;;;;28.93;15.87;;;;;;;-1.70;77.00;99818.23;125826;1099;104542;-79
2020/12/10 08:37:41;;;;;;;26.73;15.07;;;;;;;-1.72;76.97;99814.80;126595;1100;104445;-80
2020/12/10 08:40:24;;;;;;;33.33;15.23;;;;;;;-1.73;77.68;99813.09;125677;1099;104442;-80
2020/12/10 08:42:53;;;;;;;31.30;16.13;;;;;;;-1.70;77.09;99804.59;126694;1093;104494;-79
2020/12/10 08:45:35;;;;;;;26.43;14.47;;;;;;;-1.70;77.14;99802.03;126676;1098;104499;-79
2020/12/10 08:48:04;;;;;;;31.10;15.50;;;;;;;-1.69;77.65;99798.62;126461;1096;104535;-78
2020/12/10 08:50:31;;;;;;;23.73;13.83;;;;;;;-1.69;77.10;99813.97;126469;1100;104449;-79
2020/12/10 08:53:06;;;;;;;23.67;14.23;;;;;;;-1.70;77.26;99789.25;126446;1098;105677;-80
2020/12/10 08:55:44;;;;;;;24.63;13.73;;;;;;;-1.70;76.90;99802.03;126358;1097;104269;-80
2020/12/10 08:58:19;;;;;;;23.10;13.10;;;;;;;-1.69;77.65;99806.30;126440;1098;104600;-79
2020/12/10 09:00:53;;;;;;;22.60;12.97;;;;;;;-1.67;77.23;99802.05;126427;1093;104362;-79
2020/12/10 09:03:25;;;;;;;21.13;12.67;;;;;;;-1.66;77.16;99798.66;126684;1099;104445;-79
2020/12/10 09:05:53;;;;;;;22.57;13.17;;;;;;;-1.63;76.91;99798.68;126443;1098;104852;-78
2020/12/10 09:08:21;;;;;;;25.75;13.40;;;;;;;-1.61;77.28;99789.35;126456;1098;104555;-79
2020/12/10 09:10:50;;;;;;;20.55;13.32;;;;;;;-1.56;77.68;99785.13;126413;1100;104404;-78
2020/12/10 09:13:18;;;;;;;24.50;14.30;;;;;;;-1.53;77.55;99777.48;126365;1099;104419;-79
2020/12/10 09:15:45;;;;;;;22.77;13.77;;;;;;;-1.52;76.71;99774.94;126630;1098;103115;-79
2020/12/10 09:18:19;;;;;;;28.37;14.47;;;;;;;-1.49;77.13;99780.91;126411;1100;104561;-79
2020/12/10 09:20:46;;;;;;;23.20;13.63;;;;;;;-1.47;77.52;99772.41;126689;1098;104535;-80
2020/12/10 09:23:13;;;;;;;29.20;14.87;;;;;;;-1.44;77.66;99779.24;126264;1099;104442;-79
2020/12/10 09:25:42;;;;;;;26.53;14.07;;;;;;;-1.41;77.69;99772.48;126624;1093;104449;-79
2020/12/10 09:28:11;;;;;;;24.20;14.60;;;;;;;-1.39;77.55;99767.38;126402;1099;104369;-79
2020/12/10 09:30:40;;;;;;;21.43;13.80;;;;;;;-1.38;77.32;99767.38;126497;1099;104401;-79
2020/12/10 09:33:09;;;;;;;23.47;14.33;;;;;;;-1.34;77.75;99768.27;126417;1093;104394;-80
2020/12/10 09:35:36;;;;;;;25.35;14.15;;;;;;;-1.34;77.65;99760.59;126454;1098;104398;-79
2020/12/10 09:38:05;;;;;;;25.37;14.70;;;;;;;-1.33;77.91;99758.04;126735;1093;104414;-79
2020/12/10 09:40:34;;;;;;;28.87;15.03;;;;;;;-1.34;78.46;99756.33;126428;1093;104519;-79
2020/12/10 09:43:01;;;;;;;27.77;15.23;;;;;;;-1.36;77.87;99752.05;126479;1099;105619;-80
2020/12/10 09:45:29;;;;;;;24.83;15.23;;;;;;;-1.38;78.28;99754.59;126558;1093;104532;-80
2020/12/10 09:47:58;;;;;;;29.10;16.27;;;;;;;-1.40;78.21;99745.20;126452;1100;104376;-79
2020/12/10 09:50:29;;;;;;;31.27;16.83;;;;;;;-1.41;78.73;99743.48;126481;1099;104366;-79
2020/12/10 09:53:07;;;;;;;31.40;17.47;;;;;;;-1.40;78.90;99740.09;126535;1098;102958;-80
2020/12/10 09:58:07;;;;;;;28.60;16.30;;;;;;;-1.41;79.69;99743.48;126442;1099;104478;-79
2020/12/10 10:00:35;;;;;;;29.67;16.03;;;;;;;-1.41;79.80;99744.34;126689;1098;104843;-80
2020/12/10 10:03:06;;;;;;;28.93;16.70;;;;;;;-1.40;79.67;99740.09;126619;1099;104482;-80
2020/12/10 10:05:54;;;;;;;36.00;18.40;;;;;;;-1.39;79.73;99727.30;126598;1099;103188;-80
2020/12/10 10:08:24;;;;;;;32.90;17.40;;;;;;;-1.38;79.52;99731.58;126562;1099;104523;-79
2020/12/10 10:10:52;;;;;;;33.30;18.13;;;;;;;-1.38;80.07;99723.90;126528;1093;104385;-79
2020/12/10 10:13:44;;;;;;;34.93;16.70;;;;;;;-1.40;80.07;99722.18;126715;1098;104468;-80
2020/12/10 10:16:15;;;;;;;34.30;17.73;;;;;;;-1.47;80.39;99716.14;126408;1093;104382;-80
2020/12/10 10:18:44;;;;;;;31.90;18.40;;;;;;;-1.50;80.40;99728.05;126741;1098;102704;-79
2020/12/10 10:21:17;;;;;;;38.00;19.95;;;;;;;-1.51;80.76;99711.85;126359;1096;104526;-79
2020/12/10 10:23:48;;;;;;;;;;;;;;;-1.50;80.86;99698.22;126513;1098;104420;-79
2020/12/10 10:26:20;;;;;;;33.63;18.60;;;;;;;-1.48;81.16;99698.23;126570;1094;104471;-80
2020/12/10 10:28:50;;;;;;;42.10;20.30;;;;;;;-1.51;80.78;99691.39;126675;1099;104493;-80
2020/12/10 10:31:26;;;;;;;41.23;20.90;;;;;;;-1.52;80.50;99693.09;126481;1099;104462;-79
2020/12/10 10:33:56;;;;;;;41.43;21.33;;;;;;;-1.51;80.48;99683.72;126700;1098;104484;-79
2020/12/10 10:36:26;;;;;;;48.00;21.73;;;;;;;-1.49;80.46;99679.47;126320;1093;104845;-79
2020/12/10 10:38:57;;;;;;;39.33;21.73;;;;;;;-1.48;81.10;99683.73;126464;1094;104509;-79
2020/12/10 10:41:24;;;;;;;40.40;21.93;;;;;;;-1.47;80.83;99682.89;126417;1099;104552;-79
2020/12/10 10:43:55;;;;;;;45.20;22.77;;;;;;;-1.46;81.50;99686.30;126685;1098;104397;-78
2020/12/10 10:46:23;;;;;;;48.67;23.27;;;;;;;-1.45;81.04;99676.08;126660;1093;104402;-78
2020/12/10 10:48:51;;;;;;;42.93;22.33;;;;;;;-1.45;81.25;99670.97;126420;1099;104445;-79
2020/12/10 10:51:19;;;;;;;45.83;22.10;;;;;;;-1.45;80.78;99670.97;126518;1099;104436;-79
2020/12/10 10:53:46;;;;;;;46.70;22.57;;;;;;;-1.46;80.40;99669.26;126775;1100;104484;-79
2020/12/10 10:56:36;;;;;;;47.67;22.53;;;;;;;-1.42;81.26;99665.90;126716;1098;102287;-79
2020/12/10 10:59:03;;;;;;;46.87;21.33;;;;;;;-1.40;81.23;99664.20;126608;1100;104384;-79
2020/12/10 11:01:31;;;;;;;43.00;21.33;;;;;;;-1.39;80.82;99644.59;126379;1100;106095;-78
2020/12/10 11:03:59;;;;;;;42.37;22.37;;;;;;;-1.37;80.61;99658.25;126431;1093;104449;-78
2020/12/10 11:06:51;;;;;;;43.43;21.93;;;;;;;-1.36;80.72;99654.84;126669;1098;104378;-79
2020/12/10 11:09:24;;;;;;;47.47;22.20;;;;;;;-1.39;81.48;99650.56;126695;1098;104453;-79
2020/12/10 11:11:53;;;;;;;49.50;22.53;;;;;;;-1.41;81.27;99652.27;126389;1093;104531;-80
2020/12/10 11:14:21;;;;;;;43.43;21.20;;;;;;;-1.42;81.19;99662.48;126488;1096;104512;-79
2020/12/10 11:16:56;;;;;;;37.53;21.40;;;;;;;-1.44;80.87;99657.33;126726;1093;104363;-79
2020/12/10 11:19:25;;;;;;;43.63;21.07;;;;;;;-1.44;81.74;99641.98;126693;1098;104395;-79